sensor_id;sensor_type;location;lat;lon;timestamp;P1;durP1;ratioP1;P2;durP2;ratioP2
21665;SDS011;10994;45.486;9.190;2024-02-21T00:00:47;80.33;;;54.60;;
21665;SDS011;10994;45.486;9.190;2024-02-21T00:03:13;80.50;;;54.23;;
21665;SDS011;10994;45.486;9.190;2024-02-21T00:05:39;85.90;;;53.47;;
21665;SDS011;10994;45.486;9.190;2024-02-21T00:08:04;82.63;;;55.03;;
21665;SDS011;10994;45.486;9.190;2024-02-21T00:10:30;79.17;;;51.67;;
21665;SDS011;10994;45.486;9.190;2024-02-21T00:13:00;85.37;;;52.93;;
21665;SDS011;10994;45.486;9.190;2024-02-21T00:15:26;83.70;;;52.33;;
21665;SDS011;10994;45.486;9.190;2024-02-21T00:17:51;79.60;;;50.77;;
21665;SDS011;10994;45.486;9.190;2024-02-21T00:20:17;71.37;;;49.47;;
21665;SDS011;10994;45.486;9.190;2024-02-21T00:22:46;81.10;;;53.23;;
21665;SDS011;10994;45.486;9.190;2024-02-21T00:25:11;77.73;;;52.13;;
21665;SDS011;10994;45.486;9.190;2024-02-21T00:27:37;77.80;;;50.47;;
21665;SDS011;10994;45.486;9.190;2024-02-21T00:30:04;76.07;;;49.33;;
21665;SDS011;10994;45.486;9.190;2024-02-21T00:32:30;73.90;;;49.90;;
21665;SDS011;10994;45.486;9.190;2024-02-21T00:34:59;78.37;;;52.23;;
21665;SDS011;10994;45.486;9.190;2024-02-21T00:37:24;73.43;;;51.20;;
21665;SDS011;10994;45.486;9.190;2024-02-21T00:39:50;70.93;;;49.53;;
21665;SDS011;10994;45.486;9.190;2024-02-21T00:42:16;77.53;;;49.83;;
21665;SDS011;10994;45.486;9.190;2024-02-21T00:44:41;72.43;;;48.07;;
21665;SDS011;10994;45.486;9.190;2024-02-21T00:47:07;72.50;;;50.13;;
21665;SDS011;10994;45.486;9.190;2024-02-21T00:49:33;76.60;;;50.53;;
21665;SDS011;10994;45.486;9.190;2024-02-21T00:51:58;79.80;;;51.10;;
21665;SDS011;10994;45.486;9.190;2024-02-21T00:54:24;73.57;;;49.07;;
21665;SDS011;10994;45.486;9.190;2024-02-21T00:56:49;77.83;;;50.97;;
21665;SDS011;10994;45.486;9.190;2024-02-21T00:59:15;77.40;;;49.77;;
21665;SDS011;10994;45.486;9.190;2024-02-21T01:01:41;73.07;;;48.87;;
21665;SDS011;10994;45.486;9.190;2024-02-21T01:04:08;74.10;;;49.87;;
21665;SDS011;10994;45.486;9.190;2024-02-21T01:06:34;74.73;;;48.57;;
21665;SDS011;10994;45.486;9.190;2024-02-21T01:09:00;74.27;;;48.40;;
21665;SDS011;10994;45.486;9.190;2024-02-21T01:11:25;75.27;;;49.10;;
21665;SDS011;10994;45.486;9.190;2024-02-21T01:13:51;73.53;;;47.50;;
21665;SDS011;10994;45.486;9.190;2024-02-21T01:16:17;74.03;;;48.40;;
21665;SDS011;10994;45.486;9.190;2024-02-21T01:18:42;74.13;;;46.83;;
21665;SDS011;10994;45.486;9.190;2024-02-21T01:21:08;70.87;;;49.10;;
21665;SDS011;10994;45.486;9.190;2024-02-21T01:23:35;70.80;;;46.53;;
21665;SDS011;10994;45.486;9.190;2024-02-21T01:26:01;76.33;;;49.27;;
21665;SDS011;10994;45.486;9.190;2024-02-21T01:28:27;70.77;;;45.87;;
21665;SDS011;10994;45.486;9.190;2024-02-21T01:30:53;73.80;;;47.83;;
21665;SDS011;10994;45.486;9.190;2024-02-21T01:33:19;70.13;;;47.70;;
21665;SDS011;10994;45.486;9.190;2024-02-21T01:35:44;71.00;;;47.33;;
21665;SDS011;10994;45.486;9.190;2024-02-21T01:38:12;67.33;;;44.93;;
21665;SDS011;10994;45.486;9.190;2024-02-21T01:40:38;68.67;;;46.40;;
21665;SDS011;10994;45.486;9.190;2024-02-21T01:43:03;68.53;;;44.47;;
21665;SDS011;10994;45.486;9.190;2024-02-21T01:45:39;63.53;;;42.27;;
21665;SDS011;10994;45.486;9.190;2024-02-21T01:48:05;63.57;;;43.40;;
21665;SDS011;10994;45.486;9.190;2024-02-21T01:50:32;65.63;;;44.47;;
21665;SDS011;10994;45.486;9.190;2024-02-21T01:52:58;65.93;;;43.13;;
21665;SDS011;10994;45.486;9.190;2024-02-21T01:55:24;65.50;;;41.67;;
21665;SDS011;10994;45.486;9.190;2024-02-21T01:57:50;59.90;;;40.97;;
21665;SDS011;10994;45.486;9.190;2024-02-21T02:00:16;62.83;;;42.63;;
21665;SDS011;10994;45.486;9.190;2024-02-21T02:02:42;60.00;;;40.47;;
21665;SDS011;10994;45.486;9.190;2024-02-21T02:05:08;60.60;;;40.33;;
21665;SDS011;10994;45.486;9.190;2024-02-21T02:07:35;55.73;;;38.27;;
21665;SDS011;10994;45.486;9.190;2024-02-21T02:10:01;62.57;;;39.60;;
21665;SDS011;10994;45.486;9.190;2024-02-21T02:12:27;55.53;;;37.87;;
21665;SDS011;10994;45.486;9.190;2024-02-21T02:15:02;61.87;;;39.07;;
21665;SDS011;10994;45.486;9.190;2024-02-21T02:17:30;58.63;;;37.40;;
21665;SDS011;10994;45.486;9.190;2024-02-21T02:19:56;57.43;;;38.03;;
21665;SDS011;10994;45.486;9.190;2024-02-21T02:22:31;56.90;;;36.27;;
21665;SDS011;10994;45.486;9.190;2024-02-21T02:24:59;63.20;;;37.93;;
21665;SDS011;10994;45.486;9.190;2024-02-21T02:27:24;56.20;;;37.27;;
21665;SDS011;10994;45.486;9.190;2024-02-21T02:29:50;55.40;;;37.20;;
21665;SDS011;10994;45.486;9.190;2024-02-21T02:32:16;56.27;;;35.87;;
21665;SDS011;10994;45.486;9.190;2024-02-21T02:34:42;55.63;;;39.27;;
21665;SDS011;10994;45.486;9.190;2024-02-21T02:37:07;54.23;;;36.73;;
21665;SDS011;10994;45.486;9.190;2024-02-21T02:39:33;53.37;;;35.57;;
21665;SDS011;10994;45.486;9.190;2024-02-21T02:41:59;58.57;;;38.90;;
21665;SDS011;10994;45.486;9.190;2024-02-21T02:44:25;54.20;;;37.27;;
21665;SDS011;10994;45.486;9.190;2024-02-21T02:46:51;57.20;;;37.93;;
21665;SDS011;10994;45.486;9.190;2024-02-21T02:49:16;56.87;;;38.13;;
21665;SDS011;10994;45.486;9.190;2024-02-21T02:51:42;55.23;;;36.80;;
21665;SDS011;10994;45.486;9.190;2024-02-21T02:54:08;57.30;;;36.43;;
21665;SDS011;10994;45.486;9.190;2024-02-21T02:56:34;55.90;;;38.27;;
21665;SDS011;10994;45.486;9.190;2024-02-21T02:59:00;56.57;;;36.27;;
21665;SDS011;10994;45.486;9.190;2024-02-21T03:01:25;55.03;;;36.07;;
21665;SDS011;10994;45.486;9.190;2024-02-21T03:03:52;55.70;;;36.53;;
21665;SDS011;10994;45.486;9.190;2024-02-21T03:06:18;49.83;;;33.90;;
21665;SDS011;10994;45.486;9.190;2024-02-21T03:08:44;59.27;;;35.27;;
21665;SDS011;10994;45.486;9.190;2024-02-21T03:11:10;51.03;;;32.93;;
21665;SDS011;10994;45.486;9.190;2024-02-21T03:13:36;43.77;;;31.57;;
21665;SDS011;10994;45.486;9.190;2024-02-21T03:16:02;49.93;;;33.43;;
21665;SDS011;10994;45.486;9.190;2024-02-21T03:18:27;51.10;;;32.30;;
21665;SDS011;10994;45.486;9.190;2024-02-21T03:20:53;45.60;;;30.37;;
21665;SDS011;10994;45.486;9.190;2024-02-21T03:23:19;42.00;;;29.03;;
21665;SDS011;10994;45.486;9.190;2024-02-21T03:25:44;41.90;;;28.20;;
21665;SDS011;10994;45.486;9.190;2024-02-21T03:28:10;46.17;;;29.93;;
21665;SDS011;10994;45.486;9.190;2024-02-21T03:30:36;46.47;;;30.47;;
21665;SDS011;10994;45.486;9.190;2024-02-21T03:33:02;50.03;;;33.03;;
21665;SDS011;10994;45.486;9.190;2024-02-21T03:35:28;53.97;;;32.77;;
21665;SDS011;10994;45.486;9.190;2024-02-21T03:37:53;51.07;;;34.17;;
21665;SDS011;10994;45.486;9.190;2024-02-21T03:40:19;47.53;;;32.67;;
21665;SDS011;10994;45.486;9.190;2024-02-21T03:42:45;49.37;;;32.50;;
21665;SDS011;10994;45.486;9.190;2024-02-21T03:45:10;47.37;;;32.90;;
21665;SDS011;10994;45.486;9.190;2024-02-21T03:47:36;54.33;;;33.83;;
21665;SDS011;10994;45.486;9.190;2024-02-21T03:50:02;51.80;;;32.10;;
21665;SDS011;10994;45.486;9.190;2024-02-21T03:52:27;51.67;;;32.53;;
21665;SDS011;10994;45.486;9.190;2024-02-21T03:54:53;45.80;;;30.87;;
21665;SDS011;10994;45.486;9.190;2024-02-21T03:57:20;48.53;;;31.00;;
21665;SDS011;10994;45.486;9.190;2024-02-21T03:59:46;45.67;;;30.53;;
21665;SDS011;10994;45.486;9.190;2024-02-21T04:02:14;46.80;;;31.23;;
21665;SDS011;10994;45.486;9.190;2024-02-21T04:04:42;51.57;;;31.50;;
21665;SDS011;10994;45.486;9.190;2024-02-21T04:07:13;47.63;;;31.17;;
21665;SDS011;10994;45.486;9.190;2024-02-21T04:09:39;49.23;;;30.20;;
21665;SDS011;10994;45.486;9.190;2024-02-21T04:12:05;42.83;;;27.73;;
21665;SDS011;10994;45.486;9.190;2024-02-21T04:14:33;45.20;;;29.20;;
21665;SDS011;10994;45.486;9.190;2024-02-21T04:16:59;44.30;;;28.60;;
21665;SDS011;10994;45.486;9.190;2024-02-21T04:19:25;44.37;;;28.80;;
21665;SDS011;10994;45.486;9.190;2024-02-21T04:21:51;47.97;;;29.93;;
21665;SDS011;10994;45.486;9.190;2024-02-21T04:24:17;46.60;;;29.77;;
21665;SDS011;10994;45.486;9.190;2024-02-21T04:26:42;46.30;;;28.17;;
21665;SDS011;10994;45.486;9.190;2024-02-21T04:29:08;46.93;;;29.63;;
21665;SDS011;10994;45.486;9.190;2024-02-21T04:31:34;40.70;;;27.00;;
21665;SDS011;10994;45.486;9.190;2024-02-21T04:34:00;41.37;;;28.23;;
21665;SDS011;10994;45.486;9.190;2024-02-21T04:36:26;44.87;;;28.77;;
21665;SDS011;10994;45.486;9.190;2024-02-21T04:38:51;37.57;;;25.27;;
21665;SDS011;10994;45.486;9.190;2024-02-21T04:41:17;38.87;;;25.40;;
21665;SDS011;10994;45.486;9.190;2024-02-21T04:43:42;42.90;;;27.83;;
21665;SDS011;10994;45.486;9.190;2024-02-21T04:46:08;37.90;;;25.13;;
21665;SDS011;10994;45.486;9.190;2024-02-21T04:48:35;39.60;;;25.73;;
21665;SDS011;10994;45.486;9.190;2024-02-21T04:51:00;37.70;;;24.83;;
21665;SDS011;10994;45.486;9.190;2024-02-21T04:53:26;44.43;;;29.43;;
21665;SDS011;10994;45.486;9.190;2024-02-21T04:55:51;39.10;;;24.93;;
21665;SDS011;10994;45.486;9.190;2024-02-21T04:58:17;39.53;;;26.13;;
21665;SDS011;10994;45.486;9.190;2024-02-21T05:00:43;39.10;;;24.20;;
21665;SDS011;10994;45.486;9.190;2024-02-21T05:03:08;40.13;;;24.30;;
21665;SDS011;10994;45.486;9.190;2024-02-21T05:05:34;39.50;;;24.13;;
21665;SDS011;10994;45.486;9.190;2024-02-21T05:08:00;38.33;;;24.40;;
21665;SDS011;10994;45.486;9.190;2024-02-21T05:10:26;34.73;;;23.03;;
21665;SDS011;10994;45.486;9.190;2024-02-21T05:12:52;37.50;;;25.73;;
21665;SDS011;10994;45.486;9.190;2024-02-21T05:15:17;43.57;;;24.73;;
21665;SDS011;10994;45.486;9.190;2024-02-21T05:17:43;35.43;;;23.17;;
21665;SDS011;10994;45.486;9.190;2024-02-21T05:20:09;33.33;;;23.43;;
21665;SDS011;10994;45.486;9.190;2024-02-21T05:22:35;37.23;;;23.30;;
21665;SDS011;10994;45.486;9.190;2024-02-21T05:25:01;36.17;;;23.10;;
21665;SDS011;10994;45.486;9.190;2024-02-21T05:27:26;34.30;;;21.87;;
21665;SDS011;10994;45.486;9.190;2024-02-21T05:29:53;34.03;;;23.23;;
21665;SDS011;10994;45.486;9.190;2024-02-21T05:32:19;32.93;;;22.13;;
21665;SDS011;10994;45.486;9.190;2024-02-21T05:34:44;36.57;;;22.60;;
21665;SDS011;10994;45.486;9.190;2024-02-21T05:37:14;31.50;;;20.97;;
21665;SDS011;10994;45.486;9.190;2024-02-21T05:39:40;29.70;;;19.67;;
21665;SDS011;10994;45.486;9.190;2024-02-21T05:42:06;34.00;;;21.13;;
21665;SDS011;10994;45.486;9.190;2024-02-21T05:44:32;34.33;;;21.33;;
21665;SDS011;10994;45.486;9.190;2024-02-21T05:46:57;31.40;;;19.80;;
21665;SDS011;10994;45.486;9.190;2024-02-21T05:49:23;31.20;;;19.40;;
21665;SDS011;10994;45.486;9.190;2024-02-21T05:51:49;29.77;;;19.43;;
21665;SDS011;10994;45.486;9.190;2024-02-21T05:54:14;30.00;;;18.67;;
21665;SDS011;10994;45.486;9.190;2024-02-21T05:56:43;28.73;;;18.47;;
21665;SDS011;10994;45.486;9.190;2024-02-21T05:59:12;24.97;;;17.43;;
21665;SDS011;10994;45.486;9.190;2024-02-21T06:01:38;27.07;;;17.67;;
21665;SDS011;10994;45.486;9.190;2024-02-21T06:04:03;24.77;;;16.67;;
21665;SDS011;10994;45.486;9.190;2024-02-21T06:06:29;28.63;;;17.17;;
21665;SDS011;10994;45.486;9.190;2024-02-21T06:08:55;28.80;;;17.30;;
21665;SDS011;10994;45.486;9.190;2024-02-21T06:11:22;25.10;;;16.10;;
21665;SDS011;10994;45.486;9.190;2024-02-21T06:13:47;24.93;;;15.03;;
21665;SDS011;10994;45.486;9.190;2024-02-21T06:16:13;22.73;;;14.77;;
21665;SDS011;10994;45.486;9.190;2024-02-21T06:18:39;20.50;;;13.93;;
21665;SDS011;10994;45.486;9.190;2024-02-21T06:21:04;22.13;;;12.97;;
21665;SDS011;10994;45.486;9.190;2024-02-21T06:23:30;18.13;;;12.23;;
21665;SDS011;10994;45.486;9.190;2024-02-21T06:25:56;19.97;;;11.90;;
21665;SDS011;10994;45.486;9.190;2024-02-21T06:28:21;19.03;;;11.07;;
21665;SDS011;10994;45.486;9.190;2024-02-21T06:30:47;18.73;;;11.20;;
21665;SDS011;10994;45.486;9.190;2024-02-21T06:33:12;20.63;;;11.83;;
21665;SDS011;10994;45.486;9.190;2024-02-21T06:35:38;16.40;;;11.37;;
21665;SDS011;10994;45.486;9.190;2024-02-21T06:38:06;23.17;;;12.07;;
21665;SDS011;10994;45.486;9.190;2024-02-21T06:40:32;20.90;;;11.33;;
21665;SDS011;10994;45.486;9.190;2024-02-21T06:43:03;20.57;;;11.93;;
21665;SDS011;10994;45.486;9.190;2024-02-21T06:45:29;19.57;;;11.60;;
21665;SDS011;10994;45.486;9.190;2024-02-21T06:47:56;20.17;;;11.93;;
21665;SDS011;10994;45.486;9.190;2024-02-21T06:50:22;22.73;;;12.63;;
21665;SDS011;10994;45.486;9.190;2024-02-21T06:52:48;20.63;;;11.50;;
21665;SDS011;10994;45.486;9.190;2024-02-21T06:55:13;22.10;;;12.10;;
21665;SDS011;10994;45.486;9.190;2024-02-21T06:57:39;16.67;;;10.83;;
21665;SDS011;10994;45.486;9.190;2024-02-21T07:00:05;22.17;;;11.73;;
21665;SDS011;10994;45.486;9.190;2024-02-21T07:02:33;19.40;;;11.33;;
21665;SDS011;10994;45.486;9.190;2024-02-21T07:04:59;21.30;;;12.47;;
21665;SDS011;10994;45.486;9.190;2024-02-21T07:07:25;18.57;;;11.87;;
21665;SDS011;10994;45.486;9.190;2024-02-21T07:09:51;33.50;;;14.13;;
21665;SDS011;10994;45.486;9.190;2024-02-21T07:12:18;25.93;;;13.43;;
21665;SDS011;10994;45.486;9.190;2024-02-21T07:14:44;20.63;;;13.40;;
21665;SDS011;10994;45.486;9.190;2024-02-21T07:17:10;25.80;;;14.03;;
21665;SDS011;10994;45.486;9.190;2024-02-21T07:19:35;23.40;;;15.00;;
21665;SDS011;10994;45.486;9.190;2024-02-21T07:22:01;26.40;;;15.93;;
21665;SDS011;10994;45.486;9.190;2024-02-21T07:24:27;24.67;;;16.63;;
21665;SDS011;10994;45.486;9.190;2024-02-21T07:26:52;25.43;;;16.53;;
21665;SDS011;10994;45.486;9.190;2024-02-21T07:29:18;26.63;;;18.67;;
21665;SDS011;10994;45.486;9.190;2024-02-21T07:31:44;30.03;;;18.20;;
21665;SDS011;10994;45.486;9.190;2024-02-21T07:34:10;28.50;;;18.13;;
21665;SDS011;10994;45.486;9.190;2024-02-21T07:36:36;28.60;;;18.67;;
21665;SDS011;10994;45.486;9.190;2024-02-21T07:39:04;33.07;;;20.20;;
21665;SDS011;10994;45.486;9.190;2024-02-21T07:41:30;29.60;;;18.80;;
21665;SDS011;10994;45.486;9.190;2024-02-21T07:43:56;30.73;;;19.40;;
21665;SDS011;10994;45.486;9.190;2024-02-21T07:46:21;27.73;;;19.03;;
21665;SDS011;10994;45.486;9.190;2024-02-21T07:48:47;24.97;;;16.10;;
21665;SDS011;10994;45.486;9.190;2024-02-21T07:51:13;23.73;;;15.87;;
21665;SDS011;10994;45.486;9.190;2024-02-21T07:53:39;28.47;;;16.97;;
21665;SDS011;10994;45.486;9.190;2024-02-21T07:56:10;27.67;;;16.80;;
21665;SDS011;10994;45.486;9.190;2024-02-21T07:58:36;27.37;;;18.33;;
21665;SDS011;10994;45.486;9.190;2024-02-21T08:01:01;24.67;;;16.00;;
21665;SDS011;10994;45.486;9.190;2024-02-21T08:03:27;23.23;;;15.77;;
21665;SDS011;10994;45.486;9.190;2024-02-21T08:05:53;25.17;;;15.40;;
21665;SDS011;10994;45.486;9.190;2024-02-21T08:08:18;28.80;;;16.80;;
21665;SDS011;10994;45.486;9.190;2024-02-21T08:10:46;23.80;;;15.73;;
21665;SDS011;10994;45.486;9.190;2024-02-21T08:13:12;30.90;;;16.10;;
21665;SDS011;10994;45.486;9.190;2024-02-21T08:15:38;29.33;;;17.20;;
21665;SDS011;10994;45.486;9.190;2024-02-21T08:18:05;25.13;;;15.73;;
21665;SDS011;10994;45.486;9.190;2024-02-21T08:20:30;26.50;;;16.47;;
21665;SDS011;10994;45.486;9.190;2024-02-21T08:22:56;24.83;;;14.90;;
21665;SDS011;10994;45.486;9.190;2024-02-21T08:25:21;23.87;;;16.40;;
21665;SDS011;10994;45.486;9.190;2024-02-21T08:27:47;23.50;;;15.87;;
21665;SDS011;10994;45.486;9.190;2024-02-21T08:30:13;28.23;;;17.40;;
21665;SDS011;10994;45.486;9.190;2024-02-21T08:32:39;25.87;;;15.30;;
21665;SDS011;10994;45.486;9.190;2024-02-21T08:35:04;27.77;;;17.23;;
21665;SDS011;10994;45.486;9.190;2024-02-21T08:37:31;26.57;;;16.43;;
21665;SDS011;10994;45.486;9.190;2024-02-21T08:39:56;29.77;;;17.53;;
21665;SDS011;10994;45.486;9.190;2024-02-21T08:42:22;29.83;;;16.63;;
21665;SDS011;10994;45.486;9.190;2024-02-21T08:44:48;28.00;;;15.80;;
21665;SDS011;10994;45.486;9.190;2024-02-21T08:47:14;25.97;;;16.87;;
21665;SDS011;10994;45.486;9.190;2024-02-21T08:49:39;31.60;;;16.47;;
21665;SDS011;10994;45.486;9.190;2024-02-21T08:52:05;20.87;;;15.27;;
21665;SDS011;10994;45.486;9.190;2024-02-21T08:54:31;23.60;;;15.07;;
21665;SDS011;10994;45.486;9.190;2024-02-21T08:57:00;24.13;;;15.80;;
21665;SDS011;10994;45.486;9.190;2024-02-21T08:59:26;24.13;;;15.53;;
21665;SDS011;10994;45.486;9.190;2024-02-21T09:01:52;29.37;;;15.27;;
21665;SDS011;10994;45.486;9.190;2024-02-21T09:04:18;38.13;;;17.13;;
21665;SDS011;10994;45.486;9.190;2024-02-21T09:06:44;23.63;;;16.07;;
21665;SDS011;10994;45.486;9.190;2024-02-21T09:09:11;25.87;;;14.73;;
21665;SDS011;10994;45.486;9.190;2024-02-21T09:11:37;26.17;;;16.03;;
21665;SDS011;10994;45.486;9.190;2024-02-21T09:14:05;24.87;;;13.47;;
21665;SDS011;10994;45.486;9.190;2024-02-21T09:16:31;22.93;;;14.13;;
21665;SDS011;10994;45.486;9.190;2024-02-21T09:18:58;25.30;;;13.60;;
21665;SDS011;10994;45.486;9.190;2024-02-21T09:21:25;25.47;;;14.97;;
21665;SDS011;10994;45.486;9.190;2024-02-21T09:23:51;24.20;;;14.97;;
21665;SDS011;10994;45.486;9.190;2024-02-21T09:26:16;23.57;;;13.57;;
21665;SDS011;10994;45.486;9.190;2024-02-21T09:28:42;21.10;;;14.60;;
21665;SDS011;10994;45.486;9.190;2024-02-21T09:31:09;23.63;;;16.40;;
21665;SDS011;10994;45.486;9.190;2024-02-21T09:33:35;25.90;;;15.30;;
21665;SDS011;10994;45.486;9.190;2024-02-21T09:36:01;24.77;;;15.47;;
21665;SDS011;10994;45.486;9.190;2024-02-21T09:38:26;23.47;;;13.90;;
21665;SDS011;10994;45.486;9.190;2024-02-21T09:40:54;19.90;;;12.67;;
21665;SDS011;10994;45.486;9.190;2024-02-21T09:43:26;22.30;;;13.43;;
21665;SDS011;10994;45.486;9.190;2024-02-21T09:45:51;21.10;;;13.73;;
21665;SDS011;10994;45.486;9.190;2024-02-21T09:51:30;23.83;;;14.33;;
21665;SDS011;10994;45.486;9.190;2024-02-21T09:53:57;24.43;;;15.43;;
21665;SDS011;10994;45.486;9.190;2024-02-21T09:56:24;25.43;;;13.37;;
21665;SDS011;10994;45.486;9.190;2024-02-21T09:58:50;26.17;;;14.30;;
21665;SDS011;10994;45.486;9.190;2024-02-21T10:01:15;19.87;;;12.87;;
21665;SDS011;10994;45.486;9.190;2024-02-21T10:03:41;25.27;;;14.97;;
21665;SDS011;10994;45.486;9.190;2024-02-21T10:06:09;22.33;;;13.63;;
21665;SDS011;10994;45.486;9.190;2024-02-21T10:08:34;21.23;;;14.47;;
21665;SDS011;10994;45.486;9.190;2024-02-21T10:11:00;23.73;;;15.07;;
21665;SDS011;10994;45.486;9.190;2024-02-21T10:13:28;27.13;;;16.17;;
21665;SDS011;10994;45.486;9.190;2024-02-21T10:16:07;28.10;;;16.73;;
21665;SDS011;10994;45.486;9.190;2024-02-21T10:18:33;23.13;;;15.90;;
21665;SDS011;10994;45.486;9.190;2024-02-21T10:21:02;26.83;;;15.93;;
21665;SDS011;10994;45.486;9.190;2024-02-21T10:23:50;25.47;;;16.03;;
21665;SDS011;10994;45.486;9.190;2024-02-21T10:26:17;22.37;;;15.63;;
21665;SDS011;10994;45.486;9.190;2024-02-21T10:28:44;32.27;;;16.47;;
21665;SDS011;10994;45.486;9.190;2024-02-21T10:31:20;26.47;;;18.00;;
21665;SDS011;10994;45.486;9.190;2024-02-21T10:33:57;33.87;;;21.20;;
21665;SDS011;10994;45.486;9.190;2024-02-21T10:36:30;37.37;;;22.70;;
21665;SDS011;10994;45.486;9.190;2024-02-21T10:38:56;35.27;;;23.00;;
21665;SDS011;10994;45.486;9.190;2024-02-21T10:41:22;35.37;;;23.10;;
21665;SDS011;10994;45.486;9.190;2024-02-21T10:43:52;38.20;;;23.03;;
21665;SDS011;10994;45.486;9.190;2024-02-21T10:46:20;38.70;;;24.53;;
21665;SDS011;10994;45.486;9.190;2024-02-21T10:49:04;36.47;;;23.13;;
21665;SDS011;10994;45.486;9.190;2024-02-21T10:51:40;35.50;;;22.67;;
21665;SDS011;10994;45.486;9.190;2024-02-21T10:54:13;36.07;;;26.07;;
21665;SDS011;10994;45.486;9.190;2024-02-21T10:56:55;42.10;;;23.53;;
21665;SDS011;10994;45.486;9.190;2024-02-21T10:59:23;41.83;;;25.80;;
21665;SDS011;10994;45.486;9.190;2024-02-21T11:01:51;41.63;;;25.33;;
21665;SDS011;10994;45.486;9.190;2024-02-21T11:04:17;36.60;;;24.67;;
21665;SDS011;10994;45.486;9.190;2024-02-21T11:06:44;36.77;;;24.17;;
21665;SDS011;10994;45.486;9.190;2024-02-21T11:09:10;41.67;;;25.47;;
21665;SDS011;10994;45.486;9.190;2024-02-21T11:11:39;36.50;;;24.97;;
21665;SDS011;10994;45.486;9.190;2024-02-21T11:14:09;40.70;;;25.97;;
21665;SDS011;10994;45.486;9.190;2024-02-21T11:16:39;39.87;;;23.90;;
21665;SDS011;10994;45.486;9.190;2024-02-21T11:21:45;36.13;;;23.90;;
21665;SDS011;10994;45.486;9.190;2024-02-21T11:24:10;42.93;;;26.93;;
21665;SDS011;10994;45.486;9.190;2024-02-21T11:26:39;37.37;;;25.90;;
21665;SDS011;10994;45.486;9.190;2024-02-21T11:29:07;43.17;;;28.17;;
21665;SDS011;10994;45.486;9.190;2024-02-21T11:31:41;41.27;;;28.53;;
21665;SDS011;10994;45.486;9.190;2024-02-21T11:34:11;45.90;;;29.00;;
21665;SDS011;10994;45.486;9.190;2024-02-21T11:36:51;39.97;;;26.73;;
21665;SDS011;10994;45.486;9.190;2024-02-21T11:39:21;41.13;;;25.93;;
21665;SDS011;10994;45.486;9.190;2024-02-21T11:42:05;40.57;;;27.73;;
21665;SDS011;10994;45.486;9.190;2024-02-21T11:44:35;52.97;;;29.60;;
21665;SDS011;10994;45.486;9.190;2024-02-21T11:47:07;49.47;;;29.60;;
21665;SDS011;10994;45.486;9.190;2024-02-21T11:49:37;45.33;;;28.50;;
21665;SDS011;10994;45.486;9.190;2024-02-21T11:52:06;44.10;;;30.37;;
21665;SDS011;10994;45.486;9.190;2024-02-21T11:54:33;47.63;;;31.23;;
21665;SDS011;10994;45.486;9.190;2024-02-21T11:56:59;47.90;;;30.43;;
21665;SDS011;10994;45.486;9.190;2024-02-21T11:59:26;41.47;;;30.50;;
21665;SDS011;10994;45.486;9.190;2024-02-21T12:01:54;47.57;;;32.30;;
21665;SDS011;10994;45.486;9.190;2024-02-21T12:04:20;48.20;;;34.03;;
21665;SDS011;10994;45.486;9.190;2024-02-21T12:06:46;48.93;;;32.13;;
21665;SDS011;10994;45.486;9.190;2024-02-21T12:09:15;51.77;;;34.10;;
21665;SDS011;10994;45.486;9.190;2024-02-21T12:11:43;47.83;;;34.07;;
21665;SDS011;10994;45.486;9.190;2024-02-21T12:14:10;50.07;;;33.07;;
21665;SDS011;10994;45.486;9.190;2024-02-21T12:16:36;50.27;;;32.43;;
21665;SDS011;10994;45.486;9.190;2024-02-21T12:19:04;50.97;;;33.67;;
21665;SDS011;10994;45.486;9.190;2024-02-21T12:21:30;44.93;;;32.67;;
21665;SDS011;10994;45.486;9.190;2024-02-21T12:23:59;53.47;;;33.87;;
21665;SDS011;10994;45.486;9.190;2024-02-21T12:26:25;51.97;;;36.63;;
21665;SDS011;10994;45.486;9.190;2024-02-21T12:28:52;51.43;;;34.07;;
21665;SDS011;10994;45.486;9.190;2024-02-21T12:31:20;51.43;;;35.63;;
21665;SDS011;10994;45.486;9.190;2024-02-21T12:33:46;53.67;;;34.00;;
21665;SDS011;10994;45.486;9.190;2024-02-21T12:36:12;53.33;;;37.60;;
21665;SDS011;10994;45.486;9.190;2024-02-21T12:38:38;53.83;;;37.10;;
21665;SDS011;10994;45.486;9.190;2024-02-21T12:41:03;55.73;;;39.53;;
21665;SDS011;10994;45.486;9.190;2024-02-21T12:43:29;56.47;;;38.00;;
21665;SDS011;10994;45.486;9.190;2024-02-21T12:45:54;53.93;;;38.00;;
21665;SDS011;10994;45.486;9.190;2024-02-21T12:48:20;60.03;;;38.23;;
21665;SDS011;10994;45.486;9.190;2024-02-21T12:50:48;51.83;;;36.67;;
21665;SDS011;10994;45.486;9.190;2024-02-21T12:53:17;50.47;;;38.27;;
21665;SDS011;10994;45.486;9.190;2024-02-21T12:55:46;52.47;;;38.63;;
21665;SDS011;10994;45.486;9.190;2024-02-21T12:58:13;59.80;;;39.77;;
21665;SDS011;10994;45.486;9.190;2024-02-21T13:00:39;55.43;;;39.43;;
21665;SDS011;10994;45.486;9.190;2024-02-21T13:03:05;53.60;;;37.77;;
21665;SDS011;10994;45.486;9.190;2024-02-21T13:05:31;58.37;;;40.50;;
21665;SDS011;10994;45.486;9.190;2024-02-21T13:07:58;57.53;;;37.83;;
21665;SDS011;10994;45.486;9.190;2024-02-21T13:10:24;57.10;;;36.27;;
21665;SDS011;10994;45.486;9.190;2024-02-21T13:12:50;54.67;;;37.57;;
21665;SDS011;10994;45.486;9.190;2024-02-21T13:15:16;48.07;;;36.30;;
21665;SDS011;10994;45.486;9.190;2024-02-21T13:17:46;53.77;;;36.70;;
21665;SDS011;10994;45.486;9.190;2024-02-21T13:20:13;51.03;;;35.40;;
21665;SDS011;10994;45.486;9.190;2024-02-21T13:22:39;52.67;;;37.30;;
21665;SDS011;10994;45.486;9.190;2024-02-21T13:25:04;52.50;;;37.20;;
21665;SDS011;10994;45.486;9.190;2024-02-21T13:27:32;55.37;;;38.20;;
21665;SDS011;10994;45.486;9.190;2024-02-21T13:29:58;53.70;;;38.20;;
21665;SDS011;10994;45.486;9.190;2024-02-21T13:32:26;51.50;;;38.87;;
21665;SDS011;10994;45.486;9.190;2024-02-21T13:34:52;56.27;;;38.17;;
21665;SDS011;10994;45.486;9.190;2024-02-21T13:37:18;56.00;;;37.10;;
21665;SDS011;10994;45.486;9.190;2024-02-21T13:39:43;56.07;;;39.37;;
21665;SDS011;10994;45.486;9.190;2024-02-21T13:42:09;56.83;;;38.10;;
21665;SDS011;10994;45.486;9.190;2024-02-21T13:44:35;59.87;;;38.50;;
21665;SDS011;10994;45.486;9.190;2024-02-21T13:47:01;54.20;;;37.27;;
21665;SDS011;10994;45.486;9.190;2024-02-21T13:49:27;55.43;;;36.60;;
21665;SDS011;10994;45.486;9.190;2024-02-21T13:51:53;54.67;;;38.77;;
21665;SDS011;10994;45.486;9.190;2024-02-21T13:54:21;56.80;;;39.17;;
21665;SDS011;10994;45.486;9.190;2024-02-21T13:56:47;54.17;;;36.73;;
21665;SDS011;10994;45.486;9.190;2024-02-21T13:59:12;57.93;;;37.23;;
21665;SDS011;10994;45.486;9.190;2024-02-21T14:01:41;57.07;;;37.23;;
21665;SDS011;10994;45.486;9.190;2024-02-21T14:04:08;54.80;;;38.10;;
21665;SDS011;10994;45.486;9.190;2024-02-21T14:06:33;62.77;;;39.53;;
21665;SDS011;10994;45.486;9.190;2024-02-21T14:08:59;58.37;;;38.50;;
21665;SDS011;10994;45.486;9.190;2024-02-21T14:11:25;54.30;;;36.77;;
21665;SDS011;10994;45.486;9.190;2024-02-21T14:13:52;54.47;;;38.10;;
21665;SDS011;10994;45.486;9.190;2024-02-21T14:16:17;53.57;;;38.83;;
21665;SDS011;10994;45.486;9.190;2024-02-21T14:18:43;54.37;;;36.97;;
21665;SDS011;10994;45.486;9.190;2024-02-21T14:21:09;55.20;;;36.87;;
21665;SDS011;10994;45.486;9.190;2024-02-21T14:23:38;52.70;;;35.77;;